createdAt,value
2023-01-22T00:01:19.933Z,11.38
2023-01-22T00:03:49.540Z,11.18
2023-01-22T00:06:17.023Z,11.57
2023-01-22T00:08:44.372Z,12.30
2023-01-22T00:11:12.335Z,12.77
2023-01-22T00:13:39.904Z,10.70
2023-01-22T00:16:08.098Z,11.43
2023-01-22T00:18:35.696Z,12.48
2023-01-22T00:21:03.037Z,13.00
2023-01-22T00:23:30.337Z,11.95
2023-01-22T00:26:05.491Z,11.70
2023-01-22T00:28:33.173Z,11.25
2023-01-22T00:31:03.099Z,10.80
2023-01-22T00:33:30.820Z,11.55
2023-01-22T00:36:04.389Z,11.98
2023-01-22T00:38:31.634Z,11.52
2023-01-22T00:41:04.995Z,11.88
2023-01-22T00:43:34.373Z,11.82
2023-01-22T00:46:01.626Z,10.65
2023-01-22T00:48:28.865Z,11.52
2023-01-22T00:50:57.047Z,12.05
2023-01-22T00:53:24.559Z,11.85
2023-01-22T00:56:00.164Z,12.73
2023-01-22T00:58:29.145Z,12.77
2023-01-22T01:00:57.017Z,11.43
2023-01-22T01:03:27.523Z,12.63
2023-01-22T01:05:55.397Z,11.93
2023-01-22T01:08:24.208Z,10.68
2023-01-22T01:10:58.474Z,11.15
2023-01-22T01:13:26.737Z,11.73
2023-01-22T01:16:06.940Z,10.80
2023-01-22T01:18:35.701Z,10.88
2023-01-22T01:21:04.918Z,11.63
2023-01-22T01:23:32.221Z,11.38
2023-01-22T01:26:04.417Z,11.60
2023-01-22T01:28:31.790Z,9.07
2023-01-22T01:31:06.543Z,11.73
2023-01-22T01:33:34.125Z,11.23
2023-01-22T01:36:11.479Z,12.10
2023-01-22T01:38:39.008Z,11.52
2023-01-22T01:41:07.399Z,11.38
2023-01-22T01:43:35.124Z,10.68
2023-01-22T01:46:04.590Z,10.38
2023-01-22T01:48:34.507Z,11.40
2023-01-22T01:51:07.596Z,11.40
2023-01-22T01:53:35.682Z,10.90
2023-01-22T01:56:07.866Z,11.25
2023-01-22T01:58:38.111Z,13.43
2023-01-22T02:01:11.683Z,11.73
2023-01-22T02:03:40.433Z,11.15
2023-01-22T02:06:17.340Z,11.50
2023-01-22T02:08:48.069Z,11.82
2023-01-22T02:11:17.591Z,11.27
2023-01-22T02:14:08.291Z,11.35
2023-01-22T02:16:35.682Z,11.60
2023-01-22T02:19:03.327Z,12.05
2023-01-22T02:21:36.617Z,11.52
2023-01-22T02:24:07.612Z,11.02
2023-01-22T02:26:35.884Z,10.55
2023-01-22T02:29:04.503Z,10.40
2023-01-22T02:31:31.910Z,11.80
2023-01-22T02:34:02.071Z,11.18
2023-01-22T02:36:31.882Z,11.07
2023-01-22T02:38:59.323Z,11.60
2023-01-22T02:41:28.201Z,10.98
2023-01-22T02:43:55.592Z,10.43
2023-01-22T02:46:27.869Z,11.55
2023-01-22T02:48:55.264Z,10.15
2023-01-22T02:51:22.944Z,11.13
2023-01-22T02:53:50.914Z,11.57
2023-01-22T02:56:20.167Z,10.82
2023-01-22T02:58:47.547Z,10.15
2023-01-22T03:01:20.958Z,10.43
2023-01-22T03:03:59.018Z,11.38
2023-01-22T03:06:28.880Z,9.98
2023-01-22T03:09:00.746Z,10.32
2023-01-22T03:11:30.703Z,10.13
2023-01-22T03:14:24.412Z,9.68
2023-01-22T03:17:11.842Z,11.20
2023-01-22T03:19:57.627Z,10.55
2023-01-22T03:22:24.961Z,9.35
2023-01-22T03:24:53.166Z,10.48
2023-01-22T03:27:25.783Z,9.73
2023-01-22T03:29:54.038Z,9.68
2023-01-22T03:32:21.806Z,10.40
2023-01-22T03:34:49.057Z,10.60
2023-01-22T03:37:16.377Z,9.63
2023-01-22T03:39:46.032Z,9.80
2023-01-22T03:42:24.293Z,10.80
2023-01-22T03:44:51.568Z,10.35
2023-01-22T03:47:18.910Z,10.30
2023-01-22T03:49:46.255Z,9.35
2023-01-22T03:52:13.596Z,10.05
2023-01-22T03:54:40.988Z,10.02
2023-01-22T03:57:10.079Z,10.35
2023-01-22T03:59:39.823Z,10.27
2023-01-22T04:02:07.511Z,9.88
2023-01-22T04:04:44.773Z,10.48
2023-01-22T04:07:12.875Z,10.40
2023-01-22T04:09:40.340Z,10.10
2023-01-22T04:12:07.867Z,10.00
2023-01-22T04:14:35.171Z,9.48
2023-01-22T04:17:03.857Z,10.38
2023-01-22T04:20:00.496Z,11.02
2023-01-22T04:22:47.974Z,9.88
2023-01-22T04:25:16.022Z,9.90
2023-01-22T04:27:45.561Z,9.32
2023-01-22T04:30:18.353Z,10.07
2023-01-22T04:32:48.681Z,9.52
2023-01-22T04:35:27.859Z,10.07
2023-01-22T04:37:58.025Z,10.00
2023-01-22T04:40:25.948Z,9.27
2023-01-22T04:42:53.426Z,10.23
2023-01-22T04:45:20.755Z,9.75
2023-01-22T04:47:48.924Z,10.60
2023-01-22T04:50:22.374Z,10.50
2023-01-22T04:52:54.390Z,9.80
2023-01-22T04:55:22.236Z,11.15
2023-01-22T04:58:02.069Z,10.20
2023-01-22T05:00:31.224Z,10.20
2023-01-22T05:03:02.628Z,10.13
2023-01-22T05:05:31.692Z,9.90
2023-01-22T05:07:59.784Z,9.77
2023-01-22T05:10:27.990Z,10.10
2023-01-22T05:12:55.909Z,10.60
2023-01-22T05:15:25.381Z,10.70
2023-01-22T05:17:56.778Z,9.77
2023-01-22T05:20:25.628Z,8.88
2023-01-22T05:22:53.419Z,10.40
2023-01-22T05:25:24.539Z,11.02
2023-01-22T05:27:51.919Z,10.40
2023-01-22T05:30:45.499Z,9.57
2023-01-22T05:33:24.508Z,11.02
2023-01-22T05:36:01.972Z,10.05
2023-01-22T05:38:30.423Z,13.00
2023-01-22T05:40:58.741Z,10.85
2023-01-22T05:43:28.385Z,10.48
2023-01-22T05:46:02.142Z,10.18
2023-01-22T05:49:07.907Z,10.50
2023-01-22T05:51:36.202Z,10.48
2023-01-22T05:54:03.556Z,10.27
2023-01-22T05:56:33.526Z,9.80
2023-01-22T05:59:00.951Z,10.27
2023-01-22T06:01:29.255Z,10.63
2023-01-22T06:03:58.995Z,10.43
2023-01-22T06:06:26.819Z,10.07
2023-01-22T06:08:55.670Z,10.20
2023-01-22T06:11:24.301Z,9.60
2023-01-22T06:13:51.904Z,10.98
2023-01-22T06:16:21.628Z,10.30
2023-01-22T06:19:09.449Z,9.90
2023-01-22T06:21:44.015Z,9.75
2023-01-22T06:24:12.121Z,10.15
2023-01-22T06:26:39.490Z,10.48
2023-01-22T06:29:09.236Z,9.90
2023-01-22T06:31:36.937Z,10.20
2023-01-22T06:34:07.532Z,9.82
2023-01-22T06:36:34.823Z,11.32
2023-01-22T06:39:02.116Z,9.77
2023-01-22T06:41:40.032Z,10.35
2023-01-22T06:44:10.934Z,9.77
2023-01-22T06:46:38.235Z,9.55
2023-01-22T06:49:11.483Z,10.02
2023-01-22T06:51:41.211Z,9.68
2023-01-22T06:54:12.681Z,9.25
2023-01-22T06:56:40.119Z,9.40
2023-01-22T06:59:07.557Z,10.05
2023-01-22T07:01:34.927Z,9.02
2023-01-22T07:04:02.212Z,9.63
2023-01-22T07:06:29.640Z,9.63
2023-01-22T07:08:57.153Z,10.00
2023-01-22T07:11:24.574Z,9.52
2023-01-22T07:13:51.838Z,9.23
2023-01-22T07:16:19.184Z,10.05
2023-01-22T07:18:46.493Z,9.93
2023-01-22T07:21:13.837Z,10.90
2023-01-22T07:23:42.424Z,10.38
2023-01-22T07:26:09.822Z,9.88
2023-01-22T07:28:37.020Z,9.48
2023-01-22T07:31:05.389Z,9.02
2023-01-22T07:33:32.729Z,9.65
2023-01-22T07:36:00.045Z,9.18
2023-01-22T07:38:28.222Z,9.55
2023-01-22T07:41:01.614Z,19.75
2023-01-22T07:43:29.089Z,12.80
2023-01-22T07:45:58.102Z,11.85
2023-01-22T07:48:25.420Z,10.20
2023-01-22T07:50:52.687Z,10.05
2023-01-22T07:53:19.895Z,9.88
2023-01-22T07:55:47.118Z,9.65
2023-01-22T07:58:14.558Z,9.68
2023-01-22T08:00:41.863Z,10.05
2023-01-22T08:03:10.745Z,11.02
2023-01-22T08:05:42.599Z,10.07
2023-01-22T08:10:45.019Z,8.95
2023-01-22T08:13:12.568Z,9.68
2023-01-22T08:15:41.502Z,8.73
2023-01-22T08:18:11.196Z,10.07
2023-01-22T08:20:38.540Z,9.15
2023-01-22T08:23:05.757Z,9.13
2023-01-22T08:25:33.012Z,9.15
2023-01-22T08:28:05.164Z,9.23
2023-01-22T08:30:38.469Z,11.27
2023-01-22T08:33:12.578Z,13.75
2023-01-22T08:35:40.005Z,9.65
2023-01-22T08:38:07.764Z,8.98
2023-01-22T08:40:37.128Z,9.50
2023-01-22T08:43:05.218Z,9.63
2023-01-22T08:45:32.807Z,9.20
2023-01-22T08:48:00.433Z,9.32
2023-01-22T08:50:29.408Z,9.25
2023-01-22T08:52:58.062Z,9.82
2023-01-22T08:55:27.912Z,10.13
2023-01-22T08:57:56.200Z,10.60
2023-01-22T09:00:25.008Z,9.65
2023-01-22T09:02:52.401Z,9.35
2023-01-22T09:05:19.645Z,8.80
2023-01-22T09:07:46.943Z,9.30
2023-01-22T09:10:14.342Z,9.25
2023-01-22T09:12:41.657Z,9.25
2023-01-22T09:15:11.076Z,8.15
2023-01-22T09:17:38.295Z,7.85
2023-01-22T09:20:05.973Z,8.32
2023-01-22T09:22:33.213Z,8.73
2023-01-22T09:25:00.493Z,8.57
2023-01-22T09:27:27.773Z,8.50
2023-01-22T09:29:55.103Z,8.85
2023-01-22T09:32:22.378Z,10.38
2023-01-22T09:34:49.621Z,8.20
2023-01-22T09:37:16.997Z,8.43
2023-01-22T09:39:44.272Z,8.40
2023-01-22T09:42:20.785Z,7.97
2023-01-22T09:44:53.635Z,8.43
2023-01-22T09:47:55.931Z,8.10
2023-01-22T09:50:29.540Z,8.95
2023-01-22T09:52:59.495Z,10.40
2023-01-22T09:55:32.390Z,8.63
2023-01-22T09:58:05.882Z,12.10
2023-01-22T10:00:38.986Z,10.23
2023-01-22T10:03:16.317Z,7.47
2023-01-22T10:05:58.036Z,7.93
2023-01-22T10:08:34.540Z,6.90
2023-01-22T10:11:01.995Z,7.07
2023-01-22T10:13:50.090Z,7.53
2023-01-22T10:16:17.453Z,6.97
2023-01-22T10:19:03.125Z,8.02
2023-01-22T10:21:32.993Z,9.27
2023-01-22T10:24:00.629Z,9.57
2023-01-22T10:26:54.075Z,10.27
2023-01-22T10:29:35.539Z,10.32
2023-01-22T10:32:16.883Z,9.57
2023-01-22T10:34:44.264Z,9.68
2023-01-22T10:37:16.481Z,9.02
2023-01-22T10:39:48.311Z,7.72
2023-01-22T10:42:21.600Z,7.00
2023-01-22T10:44:49.806Z,7.95
2023-01-22T10:47:22.545Z,11.02
2023-01-22T10:50:05.175Z,11.43
2023-01-22T10:52:41.879Z,7.53
2023-01-22T10:55:37.818Z,7.55
2023-01-22T10:58:14.818Z,7.88
2023-01-22T11:00:51.754Z,7.72
2023-01-22T11:03:28.771Z,7.75
2023-01-22T11:06:04.560Z,7.15
2023-01-22T11:08:45.374Z,8.25
2023-01-22T11:11:17.276Z,7.82
2023-01-22T11:16:25.103Z,6.38
2023-01-22T11:18:58.279Z,6.65
2023-01-22T11:21:51.506Z,7.03
2023-01-22T11:24:26.554Z,6.80
2023-01-22T11:26:56.837Z,6.88
2023-01-22T11:29:51.702Z,7.05
2023-01-22T11:32:40.113Z,7.22
2023-01-22T11:35:29.393Z,6.65
2023-01-22T11:38:14.698Z,7.45
2023-01-22T11:40:53.894Z,7.20
2023-01-22T11:43:39.193Z,7.70
2023-01-22T11:46:27.731Z,7.65
2023-01-22T11:49:32.113Z,7.25
2023-01-22T11:52:21.309Z,7.93
2023-01-22T11:55:16.644Z,9.73
2023-01-22T11:57:56.703Z,6.90
2023-01-22T12:00:33.116Z,7.75
2023-01-22T12:03:28.965Z,6.80
2023-01-22T12:06:13.209Z,6.40
2023-01-22T12:09:05.609Z,6.85
2023-01-22T12:11:55.722Z,6.50
2023-01-22T12:14:36.405Z,6.07
2023-01-22T12:17:28.748Z,7.03
2023-01-22T12:20:08.415Z,7.38
2023-01-22T12:22:40.839Z,7.93
2023-01-22T12:25:32.763Z,7.05
2023-01-22T12:28:09.365Z,6.95
2023-01-22T12:31:17.490Z,6.93
2023-01-22T12:33:46.109Z,6.78
2023-01-22T12:36:18.857Z,6.75
2023-01-22T12:38:59.697Z,6.90
2023-01-22T12:41:54.801Z,7.00
2023-01-22T12:44:48.223Z,6.90
2023-01-22T12:47:24.483Z,6.70
2023-01-22T12:49:53.375Z,6.10
2023-01-22T12:52:33.487Z,7.18
2023-01-22T12:55:02.177Z,7.25
2023-01-22T12:57:41.381Z,7.05
2023-01-22T13:00:24.423Z,7.55
2023-01-22T13:02:51.722Z,7.10
2023-01-22T13:05:26.596Z,6.78
2023-01-22T13:08:17.265Z,7.03
2023-01-22T13:11:07.175Z,7.32
2023-01-22T13:13:52.156Z,9.80
2023-01-22T13:16:20.964Z,7.55
2023-01-22T13:18:53.864Z,7.18
2023-01-22T13:21:33.114Z,6.75
2023-01-22T13:24:11.796Z,6.72
2023-01-22T13:26:39.774Z,7.25
2023-01-22T13:29:18.784Z,6.72
2023-01-22T13:31:57.385Z,6.45
2023-01-22T13:34:25.947Z,7.32
2023-01-22T13:36:53.427Z,6.60
2023-01-22T13:39:26.907Z,6.88
2023-01-22T13:41:56.540Z,6.30
2023-01-22T13:44:35.624Z,6.45
2023-01-22T13:47:03.726Z,6.70
2023-01-22T13:49:33.730Z,6.60
2023-01-22T13:52:15.932Z,6.88
2023-01-22T13:54:52.377Z,7.13
2023-01-22T13:57:22.300Z,5.97
2023-01-22T14:00:00.273Z,6.53
2023-01-22T14:02:33.744Z,8.07
2023-01-22T14:05:01.909Z,6.28
2023-01-22T14:07:30.497Z,6.90
2023-01-22T14:10:11.520Z,6.40
2023-01-22T14:12:38.996Z,6.25
2023-01-22T14:15:17.330Z,6.30
2023-01-22T14:17:44.960Z,5.90
2023-01-22T14:20:13.361Z,7.03
2023-01-22T14:22:40.714Z,6.95
2023-01-22T14:25:08.744Z,7.68
2023-01-22T14:27:45.185Z,9.48
2023-01-22T14:30:16.060Z,8.10
2023-01-22T14:32:44.707Z,8.43
2023-01-22T14:35:20.688Z,7.53
2023-01-22T14:37:48.608Z,7.05
2023-01-22T14:40:17.666Z,7.00
2023-01-22T14:42:46.805Z,7.05
2023-01-22T14:45:16.680Z,7.35
2023-01-22T14:47:44.427Z,6.63
2023-01-22T14:50:12.063Z,6.35
2023-01-22T14:52:39.449Z,6.90
2023-01-22T14:55:07.041Z,6.53
2023-01-22T14:57:34.386Z,6.65
2023-01-22T15:00:02.739Z,6.90
2023-01-22T15:02:30.368Z,6.68
2023-01-22T15:04:57.694Z,6.55
2023-01-22T15:07:25.674Z,7.03
2023-01-22T15:09:52.948Z,7.15
2023-01-22T15:12:20.321Z,7.15
2023-01-22T15:14:47.631Z,7.32
2023-01-22T15:17:14.878Z,7.15
2023-01-22T15:19:42.078Z,7.47
2023-01-22T15:22:10.095Z,12.45
2023-01-22T15:24:39.494Z,8.98
2023-01-22T15:27:07.475Z,7.47
2023-01-22T15:29:34.795Z,7.78
2023-01-22T15:32:02.164Z,7.78
2023-01-22T15:34:29.555Z,7.53
2023-01-22T15:36:56.844Z,7.85
2023-01-22T15:39:24.075Z,8.30
2023-01-22T15:41:51.491Z,9.48
2023-01-22T15:44:18.860Z,9.02
2023-01-22T15:46:46.817Z,9.25
2023-01-22T15:49:14.276Z,8.65
2023-01-22T15:51:42.529Z,8.45
2023-01-22T15:54:15.241Z,8.18
2023-01-22T15:56:42.620Z,10.30
2023-01-22T15:59:11.716Z,7.80
2023-01-22T16:01:39.802Z,8.57
2023-01-22T16:04:07.257Z,8.90
2023-01-22T16:06:35.129Z,7.75
2023-01-22T16:09:05.897Z,8.05
2023-01-22T16:11:33.598Z,8.73
2023-01-22T16:14:01.176Z,7.50
2023-01-22T16:16:34.024Z,8.20
2023-01-22T16:19:03.739Z,9.10
2023-01-22T16:21:31.190Z,9.70
2023-01-22T16:24:01.391Z,9.30
2023-01-22T16:26:31.861Z,10.30
2023-01-22T16:29:01.537Z,10.85
2023-01-22T16:31:35.647Z,10.25
2023-01-22T16:34:15.596Z,9.77
2023-01-22T16:36:44.943Z,9.75
2023-01-22T16:39:21.931Z,11.02
2023-01-22T16:41:51.478Z,10.55
2023-01-22T16:44:26.569Z,9.57
2023-01-22T16:46:58.167Z,9.48
2023-01-22T16:49:32.562Z,9.23
2023-01-22T16:52:20.642Z,9.15
2023-01-22T16:54:49.618Z,8.90
2023-01-22T16:57:18.111Z,9.15
2023-01-22T16:59:45.666Z,9.05
2023-01-22T17:02:15.797Z,9.48
2023-01-22T17:04:43.378Z,11.50
2023-01-22T17:07:23.945Z,10.77
2023-01-22T17:09:59.097Z,9.82
2023-01-22T17:12:26.690Z,9.52
2023-01-22T17:14:53.987Z,11.07
2023-01-22T17:17:21.245Z,10.30
2023-01-22T17:19:48.589Z,10.80
2023-01-22T17:22:15.918Z,10.70
2023-01-22T17:24:43.781Z,10.52
2023-01-22T17:27:18.209Z,10.90
2023-01-22T17:29:45.531Z,10.07
2023-01-22T17:32:12.909Z,11.50
2023-01-22T17:34:42.034Z,12.05
2023-01-22T17:37:13.726Z,11.13
2023-01-22T17:39:43.117Z,10.88
2023-01-22T17:42:10.462Z,11.52
2023-01-22T17:44:39.050Z,12.23
2023-01-22T17:47:06.852Z,12.65
2023-01-22T17:49:35.138Z,13.85
2023-01-22T17:52:02.448Z,12.23
2023-01-22T17:54:29.877Z,12.80
2023-01-22T17:56:57.363Z,12.90
2023-01-22T17:59:25.418Z,13.82
2023-01-22T18:01:52.831Z,14.13
2023-01-22T18:04:20.246Z,15.07
2023-01-22T18:06:47.562Z,14.15
2023-01-22T18:09:14.845Z,14.13
2023-01-22T18:11:43.025Z,13.35
2023-01-22T18:14:15.991Z,12.70
2023-01-22T18:16:44.149Z,14.18
2023-01-22T18:19:11.805Z,13.77
2023-01-22T18:21:39.841Z,12.95
2023-01-22T18:24:09.034Z,13.02
2023-01-22T18:26:37.187Z,13.20
2023-01-22T18:29:05.351Z,11.75
2023-01-22T18:31:33.351Z,12.90
2023-01-22T18:34:03.911Z,13.95
2023-01-22T18:36:36.397Z,12.38
2023-01-22T18:39:09.328Z,12.30
2023-01-22T18:41:37.052Z,13.43
2023-01-22T18:44:04.543Z,13.27
2023-01-22T18:46:34.246Z,13.52
2023-01-22T18:49:03.953Z,13.20
2023-01-22T18:51:32.696Z,12.60
2023-01-22T18:54:02.542Z,13.13
2023-01-22T18:56:29.810Z,12.43
2023-01-22T18:58:58.506Z,12.88
2023-01-22T19:01:28.671Z,13.10
2023-01-22T19:04:01.617Z,12.73
2023-01-22T19:06:32.132Z,12.75
2023-01-22T19:09:08.791Z,13.90
2023-01-22T19:11:40.712Z,12.82
2023-01-22T19:16:37.654Z,13.05
2023-01-22T19:19:11.495Z,14.38
2023-01-22T19:21:40.904Z,13.32
2023-01-22T19:24:08.956Z,13.98
2023-01-22T19:26:37.718Z,13.18
2023-01-22T19:29:08.175Z,13.95
2023-01-22T19:31:42.532Z,14.23
2023-01-22T19:34:11.784Z,15.52
2023-01-22T19:36:40.003Z,14.70
2023-01-22T19:39:11.560Z,15.30
2023-01-22T19:41:40.415Z,14.60
2023-01-22T19:44:09.269Z,16.85
2023-01-22T19:46:38.130Z,16.35
2023-01-22T19:49:06.032Z,16.08
2023-01-22T19:51:34.020Z,16.13
2023-01-22T19:54:02.464Z,17.90
2023-01-22T19:56:32.266Z,15.38
2023-01-22T19:59:10.837Z,14.85
2023-01-22T20:01:39.263Z,15.23
2023-01-22T20:04:12.677Z,14.30
2023-01-22T20:06:40.323Z,14.77
2023-01-22T20:09:07.838Z,14.75
2023-01-22T20:11:35.092Z,14.55
2023-01-22T20:14:02.479Z,14.68
2023-01-22T20:16:30.262Z,14.13
2023-01-22T20:18:58.755Z,15.57
2023-01-22T20:21:27.255Z,13.45
2023-01-22T20:23:54.789Z,14.43
2023-01-22T20:26:22.853Z,12.93
2023-01-22T20:28:51.167Z,14.25
2023-01-22T20:31:23.624Z,12.95
2023-01-22T20:33:52.832Z,13.15
2023-01-22T20:36:21.809Z,12.40
2023-01-22T20:38:52.699Z,12.65
2023-01-22T20:41:22.229Z,13.40
2023-01-22T20:43:50.120Z,12.68
2023-01-22T20:46:25.284Z,12.57
2023-01-22T20:48:53.660Z,11.30
2023-01-22T20:51:27.507Z,12.18
2023-01-22T20:53:56.371Z,11.52
2023-01-22T20:56:28.576Z,11.27
2023-01-22T20:58:58.208Z,11.60
2023-01-22T21:01:26.905Z,10.85
2023-01-22T21:03:56.663Z,10.73
2023-01-22T21:06:26.009Z,10.63
2023-01-22T21:08:57.550Z,10.70
2023-01-22T21:11:27.405Z,10.10
2023-01-22T21:13:59.380Z,10.48
2023-01-22T21:16:31.104Z,10.65
2023-01-22T21:19:06.823Z,10.77
2023-01-22T21:21:35.326Z,10.90
2023-01-22T21:24:03.571Z,12.02
2023-01-22T21:26:34.742Z,10.63
2023-01-22T21:29:08.681Z,11.18
2023-01-22T21:31:39.237Z,10.93
2023-01-22T21:34:08.751Z,11.00
2023-01-22T21:36:39.649Z,11.68
2023-01-22T21:39:09.635Z,10.47
2023-01-22T21:41:38.274Z,11.35
2023-01-22T21:44:24.828Z,10.73
2023-01-22T21:46:54.705Z,11.07
2023-01-22T21:49:24.646Z,11.45
2023-01-22T21:51:59.217Z,11.38
2023-01-22T21:54:27.779Z,11.98
2023-01-22T21:56:57.214Z,12.75
2023-01-22T21:59:25.143Z,11.32
2023-01-22T22:01:55.740Z,11.25
2023-01-22T22:04:25.649Z,12.00
2023-01-22T22:06:55.401Z,13.02
2023-01-22T22:09:27.762Z,11.60
2023-01-22T22:12:07.546Z,12.55
2023-01-22T22:14:37.132Z,11.70
2023-01-22T22:17:04.589Z,12.65
2023-01-22T22:19:34.773Z,12.32
2023-01-22T22:22:02.738Z,12.57
2023-01-22T22:24:30.619Z,12.15
2023-01-22T22:26:57.868Z,11.95
2023-01-22T22:29:28.135Z,11.88
2023-01-22T22:31:55.817Z,11.88
2023-01-22T22:34:23.056Z,12.00
2023-01-22T22:36:50.340Z,11.30
2023-01-22T22:39:17.654Z,11.18
2023-01-22T22:41:45.086Z,10.18
2023-01-22T22:44:15.211Z,10.18
2023-01-22T22:46:42.785Z,11.10
2023-01-22T22:49:18.043Z,10.88
2023-01-22T22:51:46.532Z,11.52
2023-01-22T22:54:16.896Z,11.43
2023-01-22T22:56:48.932Z,12.05
2023-01-22T22:59:18.866Z,12.50
2023-01-22T23:01:46.385Z,11.43
2023-01-22T23:04:13.971Z,11.77
2023-01-22T23:06:48.054Z,11.15
2023-01-22T23:09:20.774Z,11.30
2023-01-22T23:11:51.927Z,10.57
2023-01-22T23:14:19.307Z,11.57
2023-01-22T23:16:49.713Z,11.02
2023-01-22T23:19:24.528Z,10.77
2023-01-22T23:21:56.811Z,11.70
2023-01-22T23:24:24.598Z,10.82
2023-01-22T23:26:54.915Z,9.93
2023-01-22T23:29:24.492Z,10.73
2023-01-22T23:31:52.199Z,10.95
2023-01-22T23:34:21.730Z,11.13
2023-01-22T23:36:50.120Z,9.93
2023-01-22T23:39:20.549Z,10.10
2023-01-22T23:41:48.192Z,11.15
2023-01-22T23:44:16.031Z,9.95
2023-01-22T23:46:43.437Z,11.55
2023-01-22T23:49:11.292Z,11.35
2023-01-22T23:51:41.311Z,11.85
2023-01-22T23:54:09.065Z,10.75
2023-01-22T23:56:36.518Z,11.85
2023-01-22T23:59:04.637Z,13.75
